Terminal Aerodrome Forecast
Issued by NWS Tuscon, AZ

Home | Current Version | Previous Version | Text Only | Print | Product List | Glossary On
Versions: 1 2 3 4 5 6 7 8 9 10 11 12
876
FTUS45 KTWC 172324
TAFDUG
TAF
KDUG 172324Z 1800/1824 25012G20KT P6SM SCT200
     FM180200 35008KT P6SM SCT120 BKN200
     FM181000 VRB03KT P6SM SCT120 BKN200
     FM181600 05007KT P6SM BKN250=

USA.gov is the U.S. government's official web portal to all federal, state and local government web resources and services.